26 de junho de 2022

Hora Código Clima Temp. Visibilidade Tecto Vento METAR/SPECI
2:00 da tarde
V
64 °F 6¼ mi+ 4.600 ft 270° 270° 5 kt METAR LFBC 261200Z AUTO 27005KT 240V300 9999 FEW033/// BKN046/// OVC060/// ///TCU 18/13 Q1015
1:30 da tarde
V
64 °F 6¼ mi+ 6.000 ft 270° 270° 6 kt METAR LFBC 261130Z AUTO 27006KT 240V310 9999 FEW025 SCT033 OVC060 18/13 Q1014
1:00 da tarde
M
64 °F 6¼ mi+ 2.300 ft 250° 250° 3 kt METAR LFBC 261100Z AUTO 25003KT 210V280 9999 BKN023 OVC031 18/13 Q1015
12:30 da tarde
V
64 °F 6¼ mi+ 3.100 ft 180° 180° 3 kt METAR LFBC 261030Z AUTO 18003KT 140V220 9999 FEW021 BKN031 OVC062 18/13 Q1015
12:00 da tarde
V
64 °F 6¼ mi+ 6.000 ft 170° 170° 6 kt METAR LFBC 261000Z AUTO 17006KT 140V200 9999 FEW021 OVC060 18/13 Q1015
11:30 da manhã
V
66 °F 6¼ mi+ 6.000 ft 160° 160° 5 kt METAR LFBC 260930Z AUTO 16005KT 130V190 9999 FEW037 OVC060 19/13 Q1015
11:00 da manhã
V
64 °F 6¼ mi+ 6.200 ft 180° 180° 4 kt METAR LFBC 260900Z AUTO 18004KT 140V220 9999 FEW022 BKN062 OVC100 18/13 Q1015
10:30 da manhã
V
64 °F 6¼ mi+ 6.000 ft 170° 170° 3 kt METAR LFBC 260830Z AUTO 17003KT 130V220 9999 FEW040 OVC060 18/13 Q1015
10:00 da manhã
V
63 °F 6¼ mi+ - Var Var 1 kt METAR LFBC 260800Z AUTO VRB01KT CAVOK 17/12 Q1015
9:30 da manhã
V
61 °F 6¼ mi+ - Var Var 2 kt METAR LFBC 260730Z AUTO VRB02KT CAVOK 16/12 Q1015
9:00 da manhã
V
59 °F 6¼ mi+ - Var Var 3 kt METAR LFBC 260700Z AUTO VRB03KT CAVOK 15/12 Q1015
8:30 da manhã
V
59 °F 6¼ mi+ - 130° 130° 3 kt METAR LFBC 260630Z AUTO 13003KT CAVOK 15/12 Q1015
8:00 da manhã
V
57 °F 6¼ mi+ - 110° 110° 3 kt METAR LFBC 260600Z AUTO 11003KT CAVOK 14/12 Q1015
7:30 da manhã
V
55 °F 6¼ mi+ - Var 000° 0 kt METAR LFBC 260530Z AUTO 00000KT CAVOK 13/12 Q1015
7:00 da manhã
V
55 °F 6¼ mi+ 7.000 ft 130° 130° 2 kt METAR LFBC 260500Z AUTO 13002KT 9999 FEW038 OVC070 13/12 Q1015
6:30 da manhã
V
55 °F 6¼ mi+ 3.800 ft 120° 120° 3 kt METAR LFBC 260430Z AUTO 12003KT 9999 BKN038 OVC070 13/12 Q1015
6:00 da manhã
V
57 °F 6¼ mi+ 3.800 ft 130° 130° 2 kt METAR LFBC 260400Z AUTO 13002KT 9999 OVC038 14/13 Q1015
5:30 da manhã
V
57 °F 6¼ mi+ 7.400 ft 150° 150° 3 kt METAR LFBC 260330Z AUTO 15003KT 9999 SCT038 OVC074 14/13 Q1015
5:00 da manhã
V
57 °F 6¼ mi+ 7.600 ft 150° 150° 5 kt METAR LFBC 260300Z AUTO 15005KT 9999 -RA FEW006/// SCT036/// OVC076/// ///TCU 14/13 Q1015
4:30 da manhã
V
57 °F 6¼ mi+ 3.400 ft 150° 150° 7 kt METAR LFBC 260230Z AUTO 15007KT 9999 -RA BKN034/// BKN043/// OVC050/// ///CB 14/14 Q1015
4:00 da manhã
V
59 °F 6¼ mi+ 4.600 ft 160° 160° 7 kt METAR LFBC 260200Z AUTO 16007KT 9999 -RA FEW033/// BKN046/// OVC074/// ///TCU 15/14 Q1015
3:30 da manhã
V
59 °F 6¼ mi+ - 150° 150° 5 kt METAR LFBC 260130Z AUTO 15005KT 130V190 9999 ///CB 15/14 Q1015
3:00 da manhã
V
59 °F 6¼ mi+ - 160° 160° 6 kt METAR LFBC 260100Z AUTO 16006KT 9999 //////TCU 15/14 Q1015
2:30 da manhã
V
59 °F 6¼ mi+ - 170° 170° 5 kt METAR LFBC 260030Z AUTO 17005KT 9999 //////TCU 15/14 Q1015
2:00 da manhã
V
59 °F 6¼ mi+ - 140° 140° 3 kt METAR LFBC 260000Z AUTO 14003KT CAVOK 15/14 Q1015
1:30 da manhã
V
59 °F 6¼ mi+ 7.600 ft 130° 130° 2 kt METAR LFBC 252330Z AUTO 13002KT 9999 FEW032 OVC076 15/14 Q1015
1:00 da manhã
V
61 °F 6¼ mi+ - 160° 160° 6 kt METAR LFBC 252300Z AUTO 16006KT 9999 ///TCU 16/14 Q1015
12:30 da manhã
V
61 °F 6¼ mi+ 7.400 ft 150° 150° 5 kt METAR LFBC 252230Z AUTO 15005KT 9999 FEW017 OVC074 16/14 Q1015
12:00 da manhã
V
61 °F 6¼ mi+ 7.000 ft 150° 150° 4 kt METAR LFBC 252200Z AUTO 15004KT 9999 SCT013 OVC070 16/14 Q1015

25 de junho de 2022

Hora Código Clima Temp. Visibilidade Tecto Vento METAR/SPECI
11:30 da tarde
V
61 °F 6¼ mi+ - Var 000° 0 kt METAR LFBC 252130Z AUTO 00000KT CAVOK 16/14 Q1015
11:00 da tarde
V
61 °F 6¼ mi+ - Var Var 2 kt METAR LFBC 252100Z AUTO VRB02KT CAVOK 16/14 Q1015
10:30 da tarde
V
61 °F 6¼ mi+ 6.600 ft Var Var 3 kt METAR LFBC 252030Z AUTO VRB03KT 9999 FEW013 OVC066 16/14 Q1015
10:00 da tarde
V
61 °F 6¼ mi+ - 160° 160° 3 kt METAR LFBC 252000Z AUTO 16003KT CAVOK 16/14 Q1015
9:30 da tarde
V
61 °F 6¼ mi+ - 180° 180° 4 kt METAR LFBC 251930Z AUTO 18004KT CAVOK 16/14 Q1015
9:00 da tarde
V
61 °F 6¼ mi+ 4.800 ft 190° 190° 3 kt METAR LFBC 251900Z AUTO 19003KT 9999 FEW028 SCT041 OVC048 16/13 Q1014
8:30 da tarde
V
61 °F 6¼ mi+ 3.000 ft Var Var 3 kt METAR LFBC 251830Z AUTO VRB03KT 9999 BKN030 OVC049 16/13 Q1014
8:00 da tarde
M
61 °F 6¼ mi+ 2.300 ft 330° 330° 3 kt METAR LFBC 251800Z AUTO 33003KT 300V360 9999 OVC023 16/13 Q1014
7:30 da tarde
M
63 °F 6¼ mi+ 2.100 ft Var Var 3 kt METAR LFBC 251730Z AUTO VRB03KT 9999 BKN021/// BKN031/// BKN040/// //////TCU 17/13 Q1014
7:00 da tarde
V
61 °F 6¼ mi+ 4.600 ft 310° 310° 4 kt METAR LFBC 251700Z AUTO 31004KT 270V350 9999 -RA FEW019/// SCT035/// BKN046/// ///TCU 16/13 Q1014
6:30 da tarde
V
63 °F 6¼ mi+ 5.400 ft 320° 320° 6 kt METAR LFBC 251630Z AUTO 32006KT 260V360 9999 FEW018/// SCT047/// OVC054/// //////TCU 17/13 Q1014
6:00 da tarde
V
63 °F 6¼ mi+ 4.400 ft 320° 320° 8 kt METAR LFBC 251600Z AUTO 32008KT 9999 FEW030 BKN044 OVC050 17/13 Q1014
5:30 da tarde
V
63 °F 6¼ mi+ 4.500 ft 320° 320° 7 kt METAR LFBC 251530Z AUTO 32007KT 290V350 9999 BKN045/// OVC054/// ///TCU 17/11 Q1014
5:00 da tarde
V
64 °F 6¼ mi+ 4.500 ft 310° 310° 9 kt METAR LFBC 251500Z AUTO 31009KT 270V350 9999 OVC045 18/09 Q1014
4:30 da tarde
V
66 °F 6¼ mi+ 4.400 ft 310° 310° 10 kt METAR LFBC 251430Z AUTO 31010KT 260V340 9999 SCT037 BKN044 BKN052 19/12 Q1014
4:00 da tarde
V
64 °F 6¼ mi+ 4.700 ft 290° 290° 10 kt METAR LFBC 251400Z AUTO 29010KT 250V340 9999 SCT039 BKN047 OVC054 18/11 Q1014
3:30 da tarde
V
64 °F 6¼ mi+ 4.700 ft 320° 320° 9 kt METAR LFBC 251330Z AUTO 32009KT 9999 OVC047 18/11 Q1013
3:00 da tarde
V
64 °F 6¼ mi+ 4.700 ft 300° 300° 10 kt METAR LFBC 251300Z AUTO 30010KT 270V330 9999 OVC047 18/10 Q1013
2:30 da tarde
V
66 °F 6¼ mi+ 3.000 ft 300° 300° 10 kt METAR LFBC 251230Z AUTO 30010KT 270V340 9999 SCT023 BKN030 OVC047 19/12 Q1013
2:00 da tarde
M
64 °F 6¼ mi+ 2.600 ft 310° 310° 10 kt METAR LFBC 251200Z AUTO 31010KT 280V350 9999 FEW019 BKN026 BKN033 18/13 Q1013
1:30 da tarde
M
63 °F 6¼ mi+ 1.700 ft 320° 320° 8 kt METAR LFBC 251130Z AUTO 32008KT 270V350 9999 BKN017 OVC023 17/14 Q1013
1:00 da tarde
M
61 °F 6¼ mi+ 1.400 ft 340° 340° 6 kt METAR LFBC 251100Z AUTO 34006KT 310V010 9999 -RA BKN014 BKN019 OVC038 16/14 Q1013
12:30 da tarde
M
61 °F 6¼ mi+ 1.200 ft 340° 340° 6 kt METAR LFBC 251030Z AUTO 34006KT 9999 BKN012/// OVC036/// //////TCU 16/14 Q1013 TEMPO 4000 RA BKN010
12:00 da tarde
M
61 °F 6¼ mi+ 1.000 ft 340° 340° 6 kt METAR LFBC 251000Z AUTO 34006KT 9999 BKN010/// BKN016/// OVC025/// ///TCU 16/14 Q1013 BECMG SCT010 BKN020
11:30 da manhã
M
59 °F 6¼ mi+ 1.000 ft 330° 330° 8 kt METAR LFBC 250930Z AUTO 33008KT 9999 -RA BKN010 BKN014 BKN031 15/14 Q1013 BECMG SCT010 BKN020
11:00 da manhã
M
61 °F 6¼ mi+ 2.000 ft 340° 340° 7 kt METAR LFBC 250900Z AUTO 34007KT 310V010 9999 -RA FEW009/// SCT013/// BKN020/// //////TCU 16/15 Q1013
10:30 da manhã
M
61 °F 6¼ mi+ 2.800 ft 330° 330° 5 kt METAR LFBC 250830Z AUTO 33005KT 9999 -RA SCT020/// BKN028/// OVC070/// //////TCU 16/15 Q1013
10:00 da manhã
M
61 °F 5 mi 2.300 ft 340° 340° 5 kt METAR LFBC 250800Z AUTO 34005KT 310V010 8000 -RA FEW011/// BKN023/// OVC028/// ///TCU 16/15 Q1013
9:30 da manhã
M
61 °F 6¼ mi+ 2.100 ft 340° 340° 7 kt METAR LFBC 250730Z AUTO 34007KT 9999 -RA BKN021/// BKN070/// OVC086/// ///TCU 16/15 Q1012
9:00 da manhã
V
61 °F 6¼ mi+ 7.800 ft 360° 360° 7 kt METAR LFBC 250700Z AUTO 36007KT 9999 RA SCT022/// SCT032/// BKN078/// //////TCU 16/15 Q1012
8:30 da manhã
I
61 °F 6¼ mi+ 900 ft 340° 340° 9 kt METAR LFBC 250630Z AUTO 34009KT 310V010 9999 RA BKN009/// BKN015/// BKN032/// ///TCU 16/14 Q1012
8:00 da manhã
M
63 °F 6¼ mi+ 1.100 ft 340° 340° 5 kt METAR LFBC 250600Z AUTO 34005KT 9999 -RA BKN011/// BKN018/// BKN039/// ///TCU 17/16 Q1012
7:30 da manhã
I
63 °F 6¼ mi+ 900 ft 320° 320° 8 kt METAR LFBC 250530Z AUTO 32008KT 280V360 9999 BKN009/// BKN016/// OVC025/// ///TCU 17/15 Q1012
7:00 da manhã
M
63 °F 6¼ mi+ 1.200 ft 320° 320° 3 kt METAR LFBC 250500Z AUTO 32003KT 270V350 9999 BKN012/// OVC018/// ///TCU 17/16 Q1011
6:30 da manhã
V
61 °F 6¼ mi+ 4.200 ft Var Var 2 kt METAR LFBC 250430Z AUTO VRB02KT 9999 -RA FEW016/// BKN042/// OVC048/// ///CB 16/15 Q1011
6:00 da manhã
V
61 °F 6¼ mi+ 4.900 ft 330° 330° 2 kt METAR LFBC 250400Z AUTO 33002KT 9999 BKN049/// BKN090/// OVC110/// //////CB 16/14 Q1011
5:30 da manhã
V
61 °F 6¼ mi+ - 080° 080° 4 kt METAR LFBC 250330Z AUTO 08004KT 040V100 9999 //////TCU 16/14 Q1011
5:00 da manhã
V
61 °F 6¼ mi+ 4.800 ft Var 000° 0 kt METAR LFBC 250300Z AUTO 00000KT 9999 OVC048/// //////CB 16/14 Q1012
4:30 da manhã
V
61 °F 6¼ mi+ 4.800 ft 120° 120° 1 kt METAR LFBC 250230Z AUTO 12001KT 9999 BKN048/// OVC054/// //////TCU 16/14 Q1012
4:00 da manhã
V
61 °F 6¼ mi+ 4.900 ft 090° 090° 2 kt METAR LFBC 250200Z AUTO 09002KT 9999 OVC049 16/14 Q1012
3:30 da manhã
V
61 °F 6¼ mi+ - Var Var 2 kt METAR LFBC 250130Z AUTO VRB02KT CAVOK 16/14 Q1012
3:00 da manhã
V
63 °F 6¼ mi+ - 070° 070° 2 kt METAR LFBC 250100Z AUTO 07002KT CAVOK 17/13 Q1012
2:30 da manhã
V
63 °F 6¼ mi+ - 080° 080° 2 kt METAR LFBC 250030Z AUTO 08002KT CAVOK 17/14 Q1013
2:00 da manhã
V
63 °F 6¼ mi+ - 070° 070° 2 kt METAR LFBC 250000Z AUTO 07002KT CAVOK 17/13 Q1013
1:30 da manhã
V
63 °F 6¼ mi+ 5.800 ft 040° 040° 1 kt METAR LFBC 242330Z AUTO 04001KT 9999 FEW035 BKN058 OVC100 17/14 Q1013
1:00 da manhã
V
61 °F 6¼ mi+ 3.400 ft Var 000° 0 kt METAR LFBC 242300Z AUTO 00000KT 9999 OVC034 16/14 Q1014
12:30 da manhã
V
59 °F 6¼ mi+ 3.500 ft Var 000° 0 kt METAR LFBC 242230Z AUTO 00000KT 9999 BKN035 BKN094 15/13 Q1014
12:00 da manhã
V
59 °F 6¼ mi+ 13.000 ft Var 000° 0 kt METAR LFBC 242200Z AUTO 00000KT 9999 SCT035 BKN130 15/13 Q1014

24 de junho de 2022

Hora Código Clima Temp. Visibilidade Tecto Vento METAR/SPECI
11:30 da tarde
V
61 °F 6¼ mi+ - 130° 130° 2 kt METAR LFBC 242130Z AUTO 13002KT CAVOK 16/13 Q1014
11:00 da tarde
V
61 °F 6¼ mi+ - Var 000° 0 kt METAR LFBC 242100Z AUTO 00000KT CAVOK 16/13 Q1014
10:30 da tarde
V
63 °F 6¼ mi+ - Var 000° 0 kt METAR LFBC 242030Z AUTO 00000KT CAVOK 17/13 Q1014
10:00 da tarde
V
64 °F 6¼ mi+ - Var 000° 0 kt METAR LFBC 242000Z AUTO 00000KT CAVOK 18/13 Q1014
9:30 da tarde
V
66 °F 6¼ mi+ - Var Var 2 kt METAR LFBC 241930Z AUTO VRB02KT CAVOK 19/13 Q1014
9:00 da tarde
V
68 °F 6¼ mi+ - 310° 310° 6 kt METAR LFBC 241900Z AUTO 31006KT 270V340 CAVOK 20/13 Q1014
8:30 da tarde
V
70 °F 6¼ mi+ - 310° 310° 5 kt METAR LFBC 241830Z AUTO 31005KT 260V350 CAVOK 21/13 Q1014
8:00 da tarde
V
70 °F 6¼ mi+ - 310° 310° 5 kt METAR LFBC 241800Z AUTO 31005KT 270V350 CAVOK 21/12 Q1013
7:30 da tarde
V
72 °F 6¼ mi+ - 310° 310° 6 kt METAR LFBC 241730Z AUTO 31006KT 240V340 CAVOK 22/12 Q1013
7:00 da tarde
V
72 °F 6¼ mi+ - 290° 290° 8 kt METAR LFBC 241700Z AUTO 29008KT 260V340 CAVOK 22/12 Q1013
6:30 da tarde
V
72 °F 6¼ mi+ - 310° 310° 9 kt METAR LFBC 241630Z AUTO 31009KT 270V330 CAVOK 22/12 Q1013
6:00 da tarde
V
72 °F 6¼ mi+ - 300° 300° 10 kt METAR LFBC 241600Z AUTO 30010KT 260V330 9999 FEW034 22/12 Q1013
5:30 da tarde
V
73 °F 6¼ mi+ - 280° 280° 9 kt METAR LFBC 241530Z AUTO 28009KT 240V320 9999 SCT033 23/13 Q1014
5:00 da tarde
V
72 °F 6¼ mi+ - 270° 270° 9 kt METAR LFBC 241500Z AUTO 27009KT 210V320 9999 FEW035 22/13 Q1014
4:30 da tarde
V
72 °F 6¼ mi+ - 280° 280° 10 kt METAR LFBC 241430Z AUTO 28010KT 9999 SCT035 22/13 Q1014
4:00 da tarde
V
72 °F 6¼ mi+ 3.400 ft 280° 280° 10 kt METAR LFBC 241400Z AUTO 28010KT 260V330 9999 BKN034 22/13 Q1014
3:30 da tarde
V
72 °F 6¼ mi+ 3.300 ft 250° 250° 11 kt METAR LFBC 241330Z AUTO 25011KT 210V280 9999 BKN033 22/13 Q1014 NOSIG
3:00 da tarde
V
70 °F 6¼ mi+ 3.000 ft 260° 260° 10 kt METAR LFBC 241300Z AUTO 26010KT 220V320 9999 BKN030 BKN038 OVC049 21/13 Q1014 NOSIG
2:30 da tarde
M
70 °F 6¼ mi+ 2.500 ft 290° 290° 10 kt METAR LFBC 241230Z AUTO 29010KT 240V320 9999 OVC025 21/14 Q1014 NOSIG
2:00 da tarde
M
70 °F 6¼ mi+ 2.700 ft 250° 250° 10 kt METAR LFBC 241200Z AUTO 25010KT 220V280 9999 BKN027 BKN036 21/15 Q1014 NOSIG
Dados mais antigos

Baixe nosso aplicativo

Fácil acesso a todas as condições meteorológicas da aviação no seu celular e no seu tablet.
Com muitas características não disponíveis no site, como suporte offline e uma lista pessoal de aeroportos.

Nós e terceiros acompanhamos seu comportamento na internet em nosso site com cookies. Se você continuar, nós assumimos que você concorda com nossa política de cookies. Saiba mais